FNHU/NOV METAR and TAF weather

Enter ICAO airport designator
Station Type Date Time Source
FNHU METAR 2020/02/21 12:00 UTC NOAA

FNHU 211200Z 00000KT 9999 SCT017 26/18 Q1020


Station Type Date Time Source
FNHU Decoded METAR 2020/02/21 12:00 UTC NOAA

Huambo Nova Lisboa , Angola (FNHU) 12-48S 015-45E 1701M
Feb 21, 2020 - 07:00 AM EST / 2020.02.21 1200 UTC
Wind: Calm:0
Visibility: greater than 7 mile(s):0
Sky conditions: partly cloudy
Temperature: 78 F (26 C)
Dew Point: 64 F (18 C)
Relative Humidity: 61%
Pressure (altimeter): 30.12 in. Hg (1020 hPa)
ob: FNHU 211200Z 00000KT 9999 SCT017 26/18 Q1020
cycle: 12

Station Type Date Time Source
FNHU TAF 2020/02/21 12:33 UTC NOAA

TAF TAF FNHU 211100Z 2112/2124 24008KT 8000 SCT018 FEW025CB
TEMPO 2112/2117 4000 -TSRA SCT010 FEW025CB BKN050

Example: see airport list